createdAt,value
2022-11-16T00:15:53.834Z,95257.63
2022-11-16T00:37:17.172Z,95259.47
2022-11-16T00:40:02.980Z,95255.00
2022-11-16T00:42:48.765Z,95249.13
2022-11-16T01:19:17.636Z,95231.34
2022-11-16T01:22:03.847Z,95233.97
2022-11-16T01:24:49.870Z,95226.38
2022-11-16T01:33:28.926Z,95211.41
2022-11-16T01:36:15.477Z,95200.84
2022-11-16T01:39:02.753Z,95206.63
2022-11-16T02:01:48.375Z,95181.84
2022-11-16T02:04:34.322Z,95172.38
2022-11-16T02:31:17.913Z,95160.53
2022-11-16T02:34:05.945Z,95156.03
2022-11-16T02:36:58.895Z,95119.88
2022-11-16T02:39:48.573Z,95145.28
2022-11-16T02:42:44.574Z,95149.06
2022-11-16T02:45:33.397Z,95137.41
2022-11-16T02:48:34.128Z,95143.81
2022-11-16T02:51:21.379Z,95128.84
2022-11-16T02:54:16.388Z,95142.19
2022-11-16T02:57:05.483Z,95140.00
2022-11-16T02:59:55.668Z,95139.22
2022-11-16T03:03:20.209Z,95132.03
2022-11-16T03:06:08.800Z,95134.22
2022-11-16T03:09:01.023Z,95134.22
2022-11-16T03:11:59.538Z,95131.06
2022-11-16T03:14:56.798Z,95129.47
2022-11-16T03:17:45.194Z,95127.88
2022-11-16T03:20:34.085Z,95114.00
2022-11-16T03:23:20.100Z,95112.31
2022-11-16T03:26:08.581Z,95117.69
2022-11-16T03:29:05.429Z,95111.50
2022-11-16T03:31:54.600Z,95109.13
2022-11-16T03:34:42.087Z,95111.31
2022-11-16T03:37:28.739Z,95108.16
2022-11-16T03:40:17.520Z,95112.53
2022-11-16T03:43:04.141Z,95106.75
2022-11-16T03:45:50.514Z,95108.34
2022-11-16T03:48:38.919Z,95105.63
2022-11-16T03:51:31.278Z,95091.41
2022-11-16T03:54:16.980Z,95095.38
2022-11-16T03:57:03.727Z,95096.38
2022-11-16T03:59:49.746Z,95091.50
2022-11-16T04:02:35.516Z,95077.41
2022-11-16T04:05:40.603Z,95068.44
2022-11-16T04:08:45.848Z,95078.09
2022-11-16T04:11:51.461Z,95062.38
2022-11-16T04:14:55.949Z,95063.94
2022-11-16T04:18:02.009Z,95070.63
2022-11-16T04:21:06.534Z,95069.34
2022-11-16T04:24:11.096Z,95054.09
2022-11-16T04:27:18.338Z,95067.44
2022-11-16T04:30:05.086Z,95068.53
2022-11-16T04:33:11.942Z,95061.25
2022-11-16T04:36:20.611Z,95058.56
2022-11-16T04:39:06.959Z,95060.16
2022-11-16T04:42:11.853Z,95053.69
2022-11-16T04:45:16.945Z,95042.41
2022-11-16T04:48:10.421Z,95052.28
2022-11-16T04:50:57.241Z,95053.09
2022-11-16T04:53:43.741Z,95055.47
2022-11-16T04:56:37.399Z,95050.88
2022-11-16T04:59:24.423Z,95046.91
2022-11-16T05:02:11.491Z,95049.28
2022-11-16T05:15:07.569Z,95060.78
2022-11-16T05:17:55.768Z,95054.31
2022-11-16T05:25:14.538Z,95052.72
2022-11-16T06:19:31.055Z,95031.63
2022-11-16T06:22:36.897Z,95028.03
2022-11-16T06:25:23.194Z,95018.34
2022-11-16T06:37:26.590Z,95019.72
2022-11-16T06:40:14.033Z,95010.38
2022-11-16T06:43:02.981Z,95013.91
2022-11-16T06:45:50.774Z,95002.50
2022-11-16T06:48:37.277Z,94998.22
2022-11-16T06:51:27.730Z,95011.44
2022-11-16T06:57:22.761Z,95008.28
2022-11-16T07:00:10.792Z,95013.66
2022-11-16T07:02:57.339Z,95000.50
2022-11-16T07:05:43.181Z,94999.69
2022-11-16T07:08:33.515Z,94996.88
2022-11-16T07:11:20.386Z,94990.88
2022-11-16T07:14:06.871Z,94994.06
2022-11-16T07:16:59.078Z,94988.88
2022-11-16T07:19:53.595Z,94992.19
2022-11-16T07:22:40.020Z,94986.19
2022-11-16T07:25:32.443Z,94976.53
2022-11-16T07:28:18.762Z,94977.16
2022-11-16T07:31:07.792Z,94988.13
2022-11-16T07:33:54.123Z,94976.25
2022-11-16T07:37:01.690Z,94979.13
2022-11-16T07:39:47.686Z,94974.53
2022-11-16T07:42:34.005Z,94972.28
2022-11-16T07:50:54.929Z,94952.59
2022-11-16T07:53:43.091Z,94952.78
2022-11-16T07:56:29.257Z,94944.38
2022-11-16T07:59:15.180Z,94949.31
2022-11-16T08:02:04.590Z,94949.78
2022-11-16T08:04:52.146Z,94946.97
2022-11-16T08:07:43.490Z,94941.72
2022-11-16T08:10:32.931Z,94941.91
2022-11-16T08:13:19.127Z,94948.25
2022-11-16T08:16:18.429Z,94943.81
2022-11-16T08:19:06.406Z,94939.69
2022-11-16T08:21:52.896Z,94936.69
2022-11-16T08:24:39.319Z,94940.66
2022-11-16T08:27:25.638Z,94935.75
2022-11-16T08:30:14.608Z,94930.03
2022-11-16T08:33:08.157Z,94937.78
2022-11-16T08:35:55.180Z,94920.66
2022-11-16T08:38:41.231Z,94930.03
2022-11-16T08:41:27.506Z,94934.00
2022-11-16T08:44:15.465Z,94924.47
2022-11-16T08:47:04.586Z,94922.41
2022-11-16T08:49:56.002Z,94924.00
2022-11-16T08:52:45.551Z,94918.59
2022-11-16T08:55:32.975Z,94921.28
2022-11-16T08:58:19.021Z,94912.38
2022-11-16T09:01:14.027Z,94898.41
2022-11-16T09:04:00.680Z,94909.81
2022-11-16T09:06:46.552Z,94899.47
2022-11-16T09:09:32.407Z,94911.09
2022-11-16T09:12:18.568Z,94905.19
2022-11-16T09:15:06.171Z,94895.94
2022-11-16T09:17:54.909Z,94889.84
2022-11-16T09:20:45.577Z,94891.88
2022-11-16T09:23:31.269Z,94890.84
2022-11-16T09:26:20.940Z,94888.25
2022-11-16T09:29:07.334Z,94885.97
2022-11-16T09:31:53.796Z,94881.75
2022-11-16T09:34:39.752Z,94879.50
2022-11-16T09:37:25.693Z,94876.41
2022-11-16T09:40:12.629Z,94864.81
2022-11-16T09:43:28.959Z,94860.97
2022-11-16T09:46:32.693Z,94854.16
2022-11-16T09:49:26.144Z,94844.78
2022-11-16T09:52:34.752Z,94847.78
2022-11-16T09:55:26.143Z,94840.13
2022-11-16T09:58:16.626Z,94838.00
2022-11-16T10:01:15.130Z,94836.00
2022-11-16T10:04:38.422Z,94831.53
2022-11-16T10:07:42.064Z,94818.44
2022-11-16T10:10:34.927Z,94809.22
2022-11-16T10:13:50.955Z,94801.13
2022-11-16T10:16:46.039Z,94792.25
2022-11-16T10:19:49.464Z,94788.78
2022-11-16T10:23:02.538Z,94780.59
2022-11-16T10:25:54.463Z,94770.78
2022-11-16T10:29:17.137Z,94765.59
2022-11-16T10:32:12.485Z,94762.66
2022-11-16T10:35:43.719Z,94756.59
2022-11-16T10:38:31.137Z,94733.97
2022-11-16T10:41:43.468Z,94731.81
2022-11-16T10:44:58.721Z,94736.59
2022-11-16T10:48:00.642Z,94729.47
2022-11-16T10:50:48.088Z,94723.34
2022-11-16T10:53:38.882Z,94725.28
2022-11-16T10:56:32.024Z,94703.94
2022-11-16T10:59:21.195Z,94697.38
2022-11-16T11:02:34.843Z,94700.56
2022-11-16T11:05:21.388Z,94696.72
2022-11-16T11:08:11.369Z,94702.34
2022-11-16T11:11:01.963Z,94687.25
2022-11-16T11:13:47.668Z,94694.66
2022-11-16T11:16:33.787Z,94692.94
2022-11-16T11:19:25.710Z,94684.44
2022-11-16T11:22:14.437Z,94680.88
2022-11-16T11:25:01.957Z,94672.34
2022-11-16T11:27:48.096Z,94664.81
2022-11-16T11:30:34.397Z,94664.22
2022-11-16T11:33:23.858Z,94662.28
2022-11-16T11:36:19.226Z,94653.28
2022-11-16T11:39:06.610Z,94665.97
2022-11-16T11:42:25.150Z,94650.69
2022-11-16T11:45:13.334Z,94653.78
2022-11-16T11:48:36.850Z,94647.56
2022-11-16T11:51:40.679Z,94645.19
2022-11-16T11:54:29.558Z,94635.03
2022-11-16T11:57:20.725Z,94633.44
2022-11-16T12:00:08.672Z,94629.50
2022-11-16T12:03:51.440Z,94632.75
2022-11-16T12:06:52.728Z,94630.47
2022-11-16T12:10:25.515Z,94631.63
2022-11-16T12:13:41.590Z,94628.00
2022-11-16T12:16:59.680Z,94613.13
2022-11-16T12:20:08.406Z,94613.81
2022-11-16T12:23:04.357Z,94609.06
2022-11-16T12:25:56.425Z,94602.78
2022-11-16T12:29:10.390Z,94599.53
2022-11-16T12:33:17.520Z,94592.44
2022-11-16T12:36:24.282Z,94596.97
2022-11-16T12:43:46.523Z,94590.47
2022-11-16T12:51:41.858Z,94575.56
2022-11-16T12:55:28.006Z,94572.44
2022-11-16T12:58:17.563Z,94565.44
2022-11-16T13:01:45.780Z,94554.56
2022-11-16T13:04:42.163Z,94557.72
2022-11-16T13:07:33.359Z,94548.34
2022-11-16T13:10:27.009Z,94549.59
2022-11-16T13:13:40.112Z,94548.69
2022-11-16T13:16:26.403Z,94543.72
2022-11-16T13:19:13.817Z,94548.34
2022-11-16T13:22:41.192Z,94544.84
2022-11-16T13:26:10.594Z,94540.09
2022-11-16T13:29:27.871Z,94539.66
2022-11-16T13:32:22.702Z,94541.25
2022-11-16T13:35:14.238Z,94536.50
2022-11-16T13:38:02.262Z,94541.25
2022-11-16T13:40:48.014Z,94548.16
2022-11-16T13:43:33.893Z,94534.94
2022-11-16T13:46:53.768Z,94539.22
2022-11-16T13:50:13.473Z,94540.38
2022-11-16T13:54:10.951Z,94542.66
2022-11-16T13:56:52.989Z,94537.91
2022-11-16T13:59:39.176Z,94529.31
2022-11-16T14:02:31.633Z,94532.34
2022-11-16T14:05:29.649Z,94525.00
2022-11-16T14:08:24.461Z,94528.84
2022-11-16T14:11:39.728Z,94503.34
2022-11-16T14:15:18.594Z,94526.41
2022-11-16T14:18:07.555Z,94519.38
2022-11-16T14:21:09.756Z,94520.53
2022-11-16T14:23:55.847Z,94515.09
2022-11-16T14:26:59.284Z,94511.16
2022-11-16T14:30:05.726Z,94509.56
2022-11-16T14:32:53.692Z,94511.88
2022-11-16T14:35:40.217Z,94498.19
2022-11-16T14:38:37.998Z,94505.88
2022-11-16T14:41:25.030Z,94500.47
2022-11-16T14:44:11.734Z,94492.66
2022-11-16T14:46:57.951Z,94482.16
2022-11-16T14:49:46.848Z,94479.28
2022-11-16T14:52:38.935Z,94486.81
2022-11-16T14:55:27.906Z,94482.09
2022-11-16T14:58:23.295Z,94468.66
2022-11-16T15:01:14.431Z,94481.19
2022-11-16T15:04:02.776Z,94470.25
2022-11-16T15:06:55.608Z,94472.72
2022-11-16T15:09:44.952Z,94470.25
2022-11-16T15:12:44.834Z,94458.53
2022-11-16T15:15:31.839Z,94459.31
2022-11-16T15:18:21.000Z,94449.94
2022-11-16T15:21:22.791Z,94458.53
2022-11-16T15:24:35.669Z,94456.97
2022-11-16T15:27:37.055Z,94469.03
2022-11-16T15:30:40.895Z,94473.22
2022-11-16T15:38:35.189Z,94452.72
2022-11-16T15:41:33.292Z,94405.63
2022-11-16T15:47:43.424Z,94415.16
2022-11-16T15:50:35.154Z,94416.72
2022-11-16T15:53:42.947Z,94457.97
2022-11-16T15:56:33.098Z,94432.13
2022-11-16T15:59:28.711Z,94450.25
2022-11-16T16:02:21.506Z,94439.00
2022-11-16T16:05:07.868Z,94441.78
2022-11-16T16:07:59.586Z,94437.84
2022-11-16T16:10:45.522Z,94446.41
2022-11-16T16:13:45.655Z,94442.56
2022-11-16T16:16:40.047Z,94449.13
2022-11-16T16:20:20.988Z,94449.47
2022-11-16T16:23:10.570Z,94445.09
2022-11-16T16:26:05.359Z,94442.38
2022-11-16T16:28:52.880Z,94450.16
2022-11-16T16:31:39.404Z,94445.53
2022-11-16T16:34:25.423Z,94444.75
2022-11-16T16:37:12.224Z,94451.41
2022-11-16T16:39:59.250Z,94444.81
2022-11-16T16:42:48.163Z,94446.41
2022-11-16T16:46:09.735Z,94444.81
2022-11-16T16:48:55.708Z,94432.78
2022-11-16T16:52:46.248Z,94430.84
2022-11-16T16:55:43.439Z,94428.38
2022-11-16T16:58:29.387Z,94416.31
2022-11-16T17:01:15.641Z,94408.16
2022-11-16T17:04:01.430Z,94405.81
2022-11-16T17:06:48.092Z,94409.69
2022-11-16T17:09:34.072Z,94409.91
2022-11-16T17:12:19.963Z,94414.09
2022-11-16T17:15:06.567Z,94412.84
2022-11-16T17:17:52.970Z,94422.38
2022-11-16T17:20:45.318Z,94437.50
2022-11-16T17:23:32.401Z,94421.75
2022-11-16T17:26:20.275Z,94424.91
2022-11-16T17:29:06.449Z,94411.13
2022-11-16T17:31:52.547Z,94419.72
2022-11-16T17:34:41.481Z,94417.69
2022-11-16T17:37:27.339Z,94400.00
2022-11-16T17:40:13.931Z,94411.16
2022-11-16T17:42:59.932Z,94406.34
2022-11-16T17:45:45.924Z,94423.84
2022-11-16T17:48:31.964Z,94422.03
2022-11-16T17:51:20.090Z,94422.03
2022-11-16T17:54:06.518Z,94425.75
2022-11-16T17:56:52.797Z,94424.97
2022-11-16T17:59:38.939Z,94410.44
2022-11-16T18:02:25.813Z,94406.94
2022-11-16T18:05:11.979Z,94399.25
2022-11-16T18:07:58.080Z,94399.25
2022-11-16T18:10:44.686Z,94402.31
2022-11-16T18:13:30.580Z,94401.06
2022-11-16T18:16:18.226Z,94405.69
2022-11-16T18:19:06.001Z,94393.97
2022-11-16T18:21:52.154Z,94406.03
2022-11-16T18:24:38.036Z,94401.28
2022-11-16T18:27:23.854Z,94402.88
2022-11-16T18:30:10.351Z,94390.38
2022-11-16T18:32:56.364Z,94405.13
2022-11-16T18:35:43.010Z,94391.19
2022-11-16T18:38:28.991Z,94389.47
2022-11-16T18:41:19.646Z,94387.22
2022-11-16T18:44:06.329Z,94375.03
2022-11-16T18:46:52.162Z,94385.53
2022-11-16T18:49:38.045Z,94371.91
2022-11-16T18:52:23.859Z,94370.88
2022-11-16T18:55:10.084Z,94378.66
2022-11-16T18:57:56.283Z,94383.84
2022-11-16T19:00:45.464Z,94385.41
2022-11-16T19:03:32.291Z,94355.22
2022-11-16T19:06:18.793Z,94380.09
2022-11-16T19:09:06.357Z,94377.06
2022-11-16T19:11:52.357Z,94371.28
2022-11-16T19:14:39.347Z,94368.13
2022-11-16T19:17:27.002Z,94372.16
2022-11-16T19:20:13.698Z,94354.72
2022-11-16T19:22:59.524Z,94361.34
2022-11-16T19:25:46.024Z,94346.94
2022-11-16T19:28:36.962Z,94357.50
2022-11-16T19:31:28.791Z,94357.63
2022-11-16T19:34:15.147Z,94356.81
2022-11-16T19:37:01.199Z,94347.13
2022-11-16T19:39:47.411Z,94346.34
2022-11-16T19:42:33.371Z,94347.91
2022-11-16T19:45:22.317Z,94351.41
2022-11-16T19:48:08.465Z,94358.19
2022-11-16T19:50:54.268Z,94361.56
2022-11-16T19:53:40.512Z,94360.22
2022-11-16T19:56:26.774Z,94363.38
2022-11-16T19:59:12.761Z,94347.78
2022-11-16T20:01:59.008Z,94361.09
2022-11-16T20:04:45.625Z,94348.69
2022-11-16T20:07:32.414Z,94343.72
2022-11-16T20:10:18.827Z,94345.66
2022-11-16T20:13:05.171Z,94344.50
2022-11-16T20:15:51.122Z,94345.31
2022-11-16T20:18:38.622Z,94350.47
2022-11-16T20:21:35.546Z,94344.19
2022-11-16T20:24:23.717Z,94343.47
2022-11-16T20:27:09.783Z,94339.63
2022-11-16T20:29:55.600Z,94321.72
2022-11-16T20:32:41.655Z,94325.63
2022-11-16T20:35:27.749Z,94336.38
2022-11-16T20:38:15.155Z,94333.91
2022-11-16T20:41:11.136Z,94339.78
2022-11-16T20:43:58.483Z,94329.28
2022-11-16T20:46:45.277Z,94319.47
2022-11-16T20:49:31.390Z,94328.06
2022-11-16T20:52:17.217Z,94300.22
2022-11-16T20:55:03.472Z,94311.25
2022-11-16T20:57:49.685Z,94327.25
2022-11-16T21:00:35.597Z,94313.97
2022-11-16T21:03:21.485Z,94307.41
2022-11-16T21:06:08.873Z,94310.56
2022-11-16T21:08:55.052Z,94310.56
2022-11-16T21:12:00.247Z,94310.56
2022-11-16T21:14:46.763Z,94295.00
2022-11-16T21:17:32.705Z,94292.97
2022-11-16T21:20:27.308Z,94306.03
2022-11-16T21:23:16.230Z,94295.91
2022-11-16T21:26:13.910Z,94307.63
2022-11-16T21:29:01.894Z,94307.63
2022-11-16T21:31:48.287Z,94297.94
2022-11-16T21:34:39.808Z,94297.47
2022-11-16T21:37:26.254Z,94301.53
2022-11-16T21:40:12.980Z,94291.72
2022-11-16T21:42:58.973Z,94299.94
2022-11-16T21:45:46.116Z,94294.53
2022-11-16T21:48:45.373Z,94281.69
2022-11-16T21:51:31.520Z,94283.69
2022-11-16T21:54:17.444Z,94273.44
2022-11-16T21:57:03.309Z,94284.38
2022-11-16T21:59:49.399Z,94297.47
2022-11-16T22:02:35.159Z,94291.63
2022-11-16T22:05:39.394Z,94288.00
2022-11-16T22:08:25.685Z,94292.75
2022-11-16T22:11:12.187Z,94296.59
2022-11-16T22:13:57.803Z,94292.97
2022-11-16T22:16:43.544Z,94297.25
2022-11-16T22:19:29.301Z,94290.28
2022-11-16T22:22:16.440Z,94280.34
2022-11-16T22:25:02.875Z,94274.81
2022-11-16T22:28:13.796Z,94267.94
2022-11-16T22:31:01.277Z,94270.19
2022-11-16T22:33:52.007Z,94266.34
2022-11-16T22:36:37.928Z,94271.09
2022-11-16T22:39:23.909Z,94276.94
2022-11-16T22:42:10.230Z,94256.22
2022-11-16T22:44:55.842Z,94270.41
2022-11-16T22:47:41.578Z,94264.31
2022-11-16T22:50:27.502Z,94256.53
2022-11-16T22:53:13.300Z,94250.41
2022-11-16T22:56:07.395Z,94252.34
2022-11-16T22:58:53.578Z,94248.16
2022-11-16T23:01:39.675Z,94239.25
2022-11-16T23:04:25.866Z,94233.38
2022-11-16T23:07:11.945Z,94243.53
2022-11-16T23:09:57.938Z,94248.50
2022-11-16T23:13:03.232Z,94245.91
2022-11-16T23:15:49.294Z,94245.09
2022-11-16T23:18:35.468Z,94245.28
2022-11-16T23:21:40.279Z,94238.97
2022-11-16T23:24:46.121Z,94231.75
2022-11-16T23:27:40.122Z,94233.75
2022-11-16T23:30:26.642Z,94224.75
2022-11-16T23:33:12.502Z,94225.44
2022-11-16T23:35:58.858Z,94217.41
2022-11-16T23:38:44.970Z,94221.25
2022-11-16T23:41:51.482Z,94212.28
2022-11-16T23:44:37.728Z,94226.66
2022-11-16T23:47:23.684Z,94209.28
2022-11-16T23:50:10.129Z,94194.88
2022-11-16T23:52:55.940Z,94198.56
2022-11-16T23:55:41.896Z,94201.72
2022-11-16T23:58:27.640Z,94194.28
